BEL512 EBBR-EGPH
Flight info
| Callsign | BEL512 |
|---|---|
| Flight time | 1h 32m |
| Altitude | 38000 |
| Route | DENUT L610 NILON DCT WESUL M14 STOAT L613 HALIF UN590 ABEVI UN601 INPIP |
| Aircraft | A20N/M-SDE2E3FGHIRWXY/LB1 |
Departure
| Time | 2026-04-26 09:13 |
|---|---|
| Airport | Brussels Airport (EBBR) |
Arrival
| Time | 2026-04-26 10:45 |
|---|---|
| Airport | Edinburgh Airport (EGPH) |
| Time | Latitude | Longitude | Altitude | Speed | Heading |
|---|---|---|---|---|---|
| 2026-04-26 08:47 | 50.90287 | 4.48635 | 118 ft | 0 kts | 335° |
| 2026-04-26 08:59 | 50.90284 | 4.48637 | 117 ft | 1 kts | 335° |
| 2026-04-26 08:59 | 50.90277 | 4.48642 | 118 ft | 1 kts | 335° |
| 2026-04-26 08:59 | 50.90271 | 4.48646 | 119 ft | 1 kts | 335° |
| 2026-04-26 08:59 | 50.90264 | 4.48651 | 120 ft | 1 kts | 335° |
| 2026-04-26 09:00 | 50.90258 | 4.48656 | 119 ft | 1 kts | 335° |
| 2026-04-26 09:00 | 50.90251 | 4.48661 | 118 ft | 1 kts | 335° |
| 2026-04-26 09:00 | 50.90245 | 4.48665 | 119 ft | 1 kts | 335° |
| 2026-04-26 09:00 | 50.90238 | 4.48670 | 119 ft | 1 kts | 324° |
| 2026-04-26 09:01 | 50.90233 | 4.48677 | 120 ft | 1 kts | 308° |
| 2026-04-26 09:01 | 50.90228 | 4.48686 | 121 ft | 1 kts | 293° |
| 2026-04-26 09:01 | 50.90226 | 4.48697 | 122 ft | 1 kts | 277° |
| 2026-04-26 09:01 | 50.90225 | 4.48708 | 120 ft | 1 kts | 261° |
| 2026-04-26 09:02 | 50.90225 | 4.48710 | 120 ft | 0 kts | 259° |
| 2026-04-26 09:02 | 50.90226 | 4.48718 | 121 ft | 0 kts | 68° |
| 2026-04-26 09:05 | 50.90230 | 4.48732 | 121 ft | 6 kts | 68° |
| 2026-04-26 09:05 | 50.90255 | 4.48825 | 122 ft | 12 kts | 67° |
| 2026-04-26 09:05 | 50.90266 | 4.48965 | 125 ft | 13 kts | 107° |
| 2026-04-26 09:05 | 50.90264 | 4.49096 | 127 ft | 12 kts | 60° |
| 2026-04-26 09:06 | 50.90306 | 4.49224 | 126 ft | 14 kts | 66° |
| 2026-04-26 09:06 | 50.90336 | 4.49377 | 123 ft | 13 kts | 104° |
| 2026-04-26 09:06 | 50.90270 | 4.49392 | 126 ft | 0 kts | 212° |
| 2026-04-26 09:06 | 50.90250 | 4.49389 | 127 ft | 7 kts | 188° |
| 2026-04-26 09:07 | 50.90173 | 4.49365 | 129 ft | 14 kts | 193° |
| 2026-04-26 09:07 | 50.90074 | 4.49323 | 130 ft | 16 kts | 196° |
| 2026-04-26 09:07 | 50.89959 | 4.49270 | 134 ft | 17 kts | 196° |
| 2026-04-26 09:07 | 50.89846 | 4.49219 | 140 ft | 16 kts | 193° |
| 2026-04-26 09:08 | 50.89742 | 4.49185 | 146 ft | 15 kts | 191° |
| 2026-04-26 09:08 | 50.89643 | 4.49162 | 152 ft | 13 kts | 178° |
| 2026-04-26 09:08 | 50.89574 | 4.49184 | 156 ft | 9 kts | 191° |
| 2026-04-26 09:08 | 50.89513 | 4.49166 | 159 ft | 9 kts | 190° |
| 2026-04-26 09:09 | 50.89445 | 4.49146 | 162 ft | 11 kts | 192° |
| 2026-04-26 09:09 | 50.89366 | 4.49117 | 165 ft | 11 kts | 203° |
| 2026-04-26 09:09 | 50.89327 | 4.49009 | 165 ft | 13 kts | 242° |
| 2026-04-26 09:09 | 50.89284 | 4.48860 | 165 ft | 17 kts | 247° |
| 2026-04-26 09:10 | 50.89232 | 4.48681 | 165 ft | 19 kts | 245° |
| 2026-04-26 09:10 | 50.89207 | 4.48536 | 164 ft | 1 kts | 252° |
| 2026-04-26 09:10 | 50.89191 | 4.48465 | 164 ft | 11 kts | 250° |
| 2026-04-26 09:10 | 50.89155 | 4.48325 | 165 ft | 16 kts | 245° |
| 2026-04-26 09:11 | 50.89115 | 4.48149 | 164 ft | 19 kts | 251° |
| 2026-04-26 09:11 | 50.89062 | 4.47959 | 165 ft | 17 kts | 238° |
| 2026-04-26 09:11 | 50.88991 | 4.47921 | 172 ft | 9 kts | 162° |
| 2026-04-26 09:11 | 50.88954 | 4.47962 | 176 ft | 6 kts | 121° |
| 2026-04-26 09:12 | 50.88927 | 4.48039 | 178 ft | 10 kts | 120° |
| 2026-04-26 09:12 | 50.88933 | 4.48153 | 179 ft | 12 kts | 71° |
| 2026-04-26 09:12 | 50.88949 | 4.48232 | 178 ft | 2 kts | 72° |
| 2026-04-26 09:12 | 50.89000 | 4.48447 | 178 ft | 61 kts | 70° |
| 2026-04-26 09:13 | 50.89245 | 4.49518 | 178 ft | 141 kts | 70° |
| 2026-04-26 09:13 | 50.89604 | 4.51101 | 781 ft | 157 kts | 69° |
| 2026-04-26 09:13 | 50.90043 | 4.52698 | 1874 ft | 158 kts | 65° |
| 2026-04-26 09:13 | 50.90559 | 4.54275 | 2952 ft | 170 kts | 62° |
| 2026-04-26 09:14 | 50.91136 | 4.56041 | 3788 ft | 190 kts | 61° |
| 2026-04-26 09:14 | 50.91782 | 4.57986 | 4456 ft | 209 kts | 57° |
| 2026-04-26 09:14 | 50.92887 | 4.59598 | 4971 ft | 229 kts | 24° |
| 2026-04-26 09:14 | 50.94498 | 4.60078 | 5529 ft | 250 kts | 355° |
| 2026-04-26 09:15 | 50.96178 | 4.59126 | 6285 ft | 266 kts | 325° |
| 2026-04-26 09:15 | 50.97391 | 4.56933 | 7292 ft | 272 kts | 297° |
| 2026-04-26 09:15 | 50.98013 | 4.54069 | 8330 ft | 276 kts | 286° |
| 2026-04-26 09:15 | 50.98504 | 4.51141 | 9365 ft | 279 kts | 288° |
| 2026-04-26 09:16 | 50.99123 | 4.48183 | 10381 ft | 282 kts | 292° |
| 2026-04-26 09:16 | 50.99882 | 4.45231 | 11033 ft | 299 kts | 295° |
| 2026-04-26 09:16 | 51.00778 | 4.42124 | 11404 ft | 322 kts | 296° |
| 2026-04-26 09:16 | 51.01760 | 4.38883 | 11987 ft | 335 kts | 296° |
| 2026-04-26 09:17 | 51.02799 | 4.35497 | 12905 ft | 338 kts | 296° |
| 2026-04-26 09:17 | 51.03835 | 4.32113 | 13802 ft | 342 kts | 296° |
| 2026-04-26 09:17 | 51.04878 | 4.28686 | 14625 ft | 347 kts | 296° |
| 2026-04-26 09:17 | 51.05926 | 4.25220 | 15409 ft | 350 kts | 296° |
| 2026-04-26 09:18 | 51.06985 | 4.21706 | 16202 ft | 354 kts | 295° |
| 2026-04-26 09:18 | 51.08054 | 4.18146 | 16970 ft | 358 kts | 295° |
| 2026-04-26 09:18 | 51.09131 | 4.14559 | 17711 ft | 363 kts | 295° |
| 2026-04-26 09:18 | 51.10226 | 4.10910 | 18467 ft | 367 kts | 295° |
| 2026-04-26 09:19 | 51.11326 | 4.07234 | 19152 ft | 370 kts | 295° |
| 2026-04-26 09:19 | 51.12429 | 4.03534 | 19835 ft | 372 kts | 295° |
| 2026-04-26 09:19 | 51.13541 | 3.99807 | 20535 ft | 374 kts | 296° |
| 2026-04-26 09:19 | 51.14661 | 3.96050 | 21204 ft | 377 kts | 296° |
| 2026-04-26 09:20 | 51.15789 | 3.92257 | 21873 ft | 379 kts | 296° |
| 2026-04-26 09:20 | 51.16923 | 3.88440 | 22533 ft | 382 kts | 296° |
| 2026-04-26 09:20 | 51.18062 | 3.84597 | 23199 ft | 385 kts | 296° |
| 2026-04-26 09:20 | 51.19205 | 3.80734 | 23852 ft | 387 kts | 296° |
| 2026-04-26 09:21 | 51.20358 | 3.76830 | 24384 ft | 390 kts | 296° |
| 2026-04-26 09:21 | 51.21514 | 3.72905 | 24923 ft | 392 kts | 296° |
| 2026-04-26 09:21 | 51.22676 | 3.68936 | 25448 ft | 395 kts | 295° |
| 2026-04-26 09:21 | 51.23645 | 3.64834 | 25934 ft | 399 kts | 288° |
| 2026-04-26 09:22 | 51.24317 | 3.60570 | 26418 ft | 402 kts | 283° |
| 2026-04-26 09:22 | 51.24880 | 3.56177 | 26903 ft | 405 kts | 283° |
| 2026-04-26 09:22 | 51.25465 | 3.51769 | 27370 ft | 407 kts | 283° |
| 2026-04-26 09:22 | 51.26058 | 3.47334 | 27827 ft | 410 kts | 283° |
| 2026-04-26 09:23 | 51.26653 | 3.42870 | 28264 ft | 413 kts | 283° |
| 2026-04-26 09:23 | 51.27247 | 3.38376 | 28697 ft | 415 kts | 283° |
| 2026-04-26 09:23 | 51.27834 | 3.33851 | 29107 ft | 418 kts | 283° |
| 2026-04-26 09:23 | 51.28421 | 3.29287 | 29515 ft | 420 kts | 283° |
| 2026-04-26 09:24 | 51.29007 | 3.24707 | 29911 ft | 422 kts | 283° |
| 2026-04-26 09:24 | 51.29594 | 3.20105 | 30296 ft | 424 kts | 283° |
| 2026-04-26 09:24 | 51.30184 | 3.15474 | 30655 ft | 427 kts | 282° |
| 2026-04-26 09:24 | 51.30777 | 3.10803 | 31004 ft | 428 kts | 282° |
| 2026-04-26 09:25 | 51.31369 | 3.06128 | 31354 ft | 430 kts | 282° |
| 2026-04-26 09:25 | 51.31962 | 3.01430 | 31753 ft | 430 kts | 282° |
| 2026-04-26 09:25 | 51.32549 | 2.96758 | 32214 ft | 429 kts | 283° |
| 2026-04-26 09:25 | 51.33134 | 2.92090 | 32696 ft | 427 kts | 283° |
| 2026-04-26 09:26 | 51.33714 | 2.87444 | 33153 ft | 425 kts | 283° |
| 2026-04-26 09:26 | 51.34291 | 2.82808 | 33599 ft | 424 kts | 283° |
| 2026-04-26 09:26 | 51.34863 | 2.78198 | 34034 ft | 422 kts | 283° |
| 2026-04-26 09:26 | 51.35434 | 2.73580 | 34437 ft | 421 kts | 283° |
| 2026-04-26 09:27 | 51.36001 | 2.68989 | 34767 ft | 420 kts | 283° |
| 2026-04-26 09:27 | 51.36568 | 2.64397 | 35076 ft | 420 kts | 283° |
| 2026-04-26 09:27 | 51.37134 | 2.59804 | 35375 ft | 420 kts | 283° |
| 2026-04-26 09:27 | 51.37688 | 2.55281 | 35668 ft | 420 kts | 283° |
| 2026-04-26 09:28 | 51.38248 | 2.50700 | 35955 ft | 419 kts | 282° |
| 2026-04-26 09:28 | 51.38805 | 2.46117 | 36238 ft | 419 kts | 282° |
| 2026-04-26 09:28 | 51.39361 | 2.41535 | 36506 ft | 419 kts | 282° |
| 2026-04-26 09:28 | 51.39914 | 2.36955 | 36775 ft | 418 kts | 282° |
| 2026-04-26 09:29 | 51.40465 | 2.32377 | 37037 ft | 418 kts | 282° |
| 2026-04-26 09:29 | 51.41013 | 2.27810 | 37286 ft | 418 kts | 282° |
| 2026-04-26 09:29 | 51.41563 | 2.23230 | 37531 ft | 418 kts | 282° |
| 2026-04-26 09:29 | 51.42122 | 2.18659 | 37773 ft | 418 kts | 282° |
| 2026-04-26 09:30 | 51.42682 | 2.14094 | 37997 ft | 417 kts | 282° |
| 2026-04-26 09:30 | 51.43240 | 2.09529 | 38223 ft | 417 kts | 282° |
| 2026-04-26 09:30 | 51.43608 | 2.06498 | 38354 ft | 418 kts | 282° |
| 2026-04-26 09:31 | 51.44709 | 1.97371 | 38351 ft | 416 kts | 282° |
| 2026-04-26 09:31 | 51.45945 | 1.86776 | 38353 ft | 416 kts | 282° |
| 2026-04-26 09:32 | 51.46832 | 1.79133 | 38355 ft | 416 kts | 282° |
| 2026-04-26 09:32 | 51.47888 | 1.70011 | 38352 ft | 416 kts | 282° |
| 2026-04-26 09:33 | 51.48937 | 1.60891 | 38354 ft | 416 kts | 282° |
| 2026-04-26 09:33 | 51.49969 | 1.51823 | 38355 ft | 416 kts | 281° |
| 2026-04-26 09:34 | 51.51000 | 1.42691 | 38355 ft | 416 kts | 281° |
| 2026-04-26 09:34 | 51.52025 | 1.33546 | 38354 ft | 416 kts | 281° |
| 2026-04-26 09:35 | 51.53041 | 1.24409 | 38354 ft | 415 kts | 281° |
| 2026-04-26 09:35 | 51.54050 | 1.15275 | 38355 ft | 415 kts | 281° |
| 2026-04-26 09:36 | 51.55049 | 1.06140 | 38353 ft | 415 kts | 281° |
| 2026-04-26 09:36 | 51.56042 | 0.96971 | 38354 ft | 415 kts | 281° |
| 2026-04-26 09:37 | 51.57025 | 0.87842 | 38350 ft | 415 kts | 281° |
| 2026-04-26 09:37 | 51.58003 | 0.78693 | 38353 ft | 415 kts | 281° |
| 2026-04-26 09:38 | 51.59075 | 0.69649 | 38354 ft | 414 kts | 286° |
| 2026-04-26 09:38 | 51.61258 | 0.61103 | 38349 ft | 414 kts | 299° |
| 2026-04-26 09:39 | 51.64588 | 0.53600 | 38349 ft | 415 kts | 308° |
| 2026-04-26 09:39 | 51.68494 | 0.46694 | 38344 ft | 416 kts | 315° |
| 2026-04-26 09:40 | 51.72847 | 0.40526 | 38342 ft | 417 kts | 317° |
| 2026-04-26 09:40 | 51.77172 | 0.34354 | 38346 ft | 417 kts | 316° |
| 2026-04-26 09:41 | 51.81521 | 0.28149 | 38350 ft | 417 kts | 316° |
| 2026-04-26 09:41 | 51.85877 | 0.21930 | 38354 ft | 418 kts | 316° |
| 2026-04-26 09:42 | 51.90236 | 0.15693 | 38353 ft | 418 kts | 316° |
| 2026-04-26 09:42 | 51.94591 | 0.09445 | 38351 ft | 419 kts | 316° |
| 2026-04-26 09:43 | 51.98959 | 0.03161 | 38351 ft | 419 kts | 316° |
| 2026-04-26 09:43 | 52.03558 | -0.02668 | 38350 ft | 421 kts | 324° |
| 2026-04-26 09:44 | 52.08686 | -0.07350 | 38344 ft | 423 kts | 329° |
| 2026-04-26 09:44 | 52.13869 | -0.11921 | 38340 ft | 424 kts | 328° |
| 2026-04-26 09:45 | 52.19051 | -0.16509 | 38344 ft | 424 kts | 329° |
| 2026-04-26 09:45 | 52.24236 | -0.21074 | 38344 ft | 424 kts | 329° |
| 2026-04-26 09:46 | 52.29434 | -0.25662 | 38343 ft | 424 kts | 328° |
| 2026-04-26 09:46 | 52.34625 | -0.30261 | 38345 ft | 425 kts | 328° |
| 2026-04-26 09:47 | 52.39786 | -0.34844 | 38351 ft | 425 kts | 328° |
| 2026-04-26 09:47 | 52.44983 | -0.39470 | 38350 ft | 425 kts | 328° |
| 2026-04-26 09:48 | 52.50178 | -0.44108 | 38354 ft | 425 kts | 328° |
| 2026-04-26 09:48 | 52.55374 | -0.48758 | 38354 ft | 425 kts | 328° |
| 2026-04-26 09:49 | 52.60570 | -0.53422 | 38353 ft | 425 kts | 328° |
| 2026-04-26 09:49 | 52.65765 | -0.58098 | 38356 ft | 425 kts | 328° |
| 2026-04-26 09:50 | 52.70962 | -0.62787 | 38350 ft | 425 kts | 328° |
| 2026-04-26 09:50 | 52.76158 | -0.67489 | 38348 ft | 426 kts | 328° |
| 2026-04-26 09:51 | 52.81348 | -0.72198 | 38347 ft | 426 kts | 328° |
| 2026-04-26 09:51 | 52.86550 | -0.76931 | 38348 ft | 426 kts | 328° |
| 2026-04-26 09:52 | 52.91743 | -0.81670 | 38350 ft | 426 kts | 328° |
| 2026-04-26 09:52 | 52.99535 | -0.88804 | 38347 ft | 427 kts | 328° |
| 2026-04-26 09:53 | 53.04642 | -0.93492 | 38345 ft | 427 kts | 328° |
| 2026-04-26 09:53 | 53.09901 | -0.98333 | 38345 ft | 427 kts | 328° |
| 2026-04-26 09:54 | 53.15022 | -1.03060 | 38342 ft | 427 kts | 328° |
| 2026-04-26 09:54 | 53.20302 | -1.07947 | 38343 ft | 427 kts | 328° |
| 2026-04-26 09:55 | 53.25500 | -1.12772 | 38347 ft | 428 kts | 328° |
| 2026-04-26 09:55 | 53.30697 | -1.17610 | 38346 ft | 428 kts | 328° |
| 2026-04-26 09:56 | 53.35900 | -1.22466 | 38356 ft | 428 kts | 327° |
| 2026-04-26 09:56 | 53.41106 | -1.27340 | 38355 ft | 428 kts | 327° |
| 2026-04-26 09:57 | 53.46301 | -1.32223 | 38357 ft | 428 kts | 327° |
| 2026-04-26 09:57 | 53.51490 | -1.37120 | 38354 ft | 428 kts | 327° |
| 2026-04-26 09:58 | 53.56689 | -1.42040 | 38349 ft | 428 kts | 327° |
| 2026-04-26 09:58 | 53.61879 | -1.46965 | 38340 ft | 428 kts | 327° |
| 2026-04-26 09:59 | 53.66221 | -1.51097 | 38336 ft | 428 kts | 327° |
| 2026-04-26 09:59 | 53.72283 | -1.56882 | 38326 ft | 428 kts | 326° |
| 2026-04-26 10:00 | 53.77183 | -1.62482 | 38322 ft | 425 kts | 321° |
| 2026-04-26 10:00 | 53.81983 | -1.68211 | 38320 ft | 425 kts | 321° |
| 2026-04-26 10:01 | 53.86825 | -1.73998 | 38323 ft | 426 kts | 321° |
| 2026-04-26 10:01 | 53.91658 | -1.79810 | 38319 ft | 426 kts | 321° |
| 2026-04-26 10:02 | 53.96511 | -1.85667 | 38329 ft | 426 kts | 321° |
| 2026-04-26 10:02 | 54.01362 | -1.91539 | 38319 ft | 427 kts | 321° |
| 2026-04-26 10:03 | 54.06192 | -1.97403 | 38333 ft | 427 kts | 321° |
| 2026-04-26 10:03 | 54.11035 | -2.03300 | 38336 ft | 427 kts | 321° |
| 2026-04-26 10:04 | 54.15873 | -2.09207 | 38326 ft | 428 kts | 321° |
| 2026-04-26 10:04 | 54.20716 | -2.15138 | 38323 ft | 428 kts | 321° |
| 2026-04-26 10:05 | 54.25554 | -2.21083 | 38314 ft | 429 kts | 321° |
| 2026-04-26 10:05 | 54.30402 | -2.27056 | 38325 ft | 429 kts | 321° |
| 2026-04-26 10:06 | 54.35250 | -2.33046 | 38321 ft | 430 kts | 321° |
| 2026-04-26 10:06 | 54.40099 | -2.39057 | 38313 ft | 430 kts | 321° |
| 2026-04-26 10:07 | 54.44921 | -2.45050 | 38321 ft | 430 kts | 321° |
| 2026-04-26 10:07 | 54.49771 | -2.51097 | 38307 ft | 431 kts | 321° |
| 2026-04-26 10:08 | 54.54611 | -2.57149 | 38306 ft | 429 kts | 321° |
| 2026-04-26 10:08 | 54.55693 | -2.58504 | 38307 ft | 430 kts | 321° |
| 2026-04-26 10:09 | 54.59728 | -2.63569 | 38299 ft | 431 kts | 321° |
| 2026-04-26 10:09 | 54.65361 | -2.70658 | 38303 ft | 431 kts | 321° |
| 2026-04-26 10:10 | 54.70271 | -2.76635 | 38304 ft | 434 kts | 326° |
| 2026-04-26 10:10 | 54.75778 | -2.81036 | 38294 ft | 437 kts | 334° |
| 2026-04-26 10:11 | 54.80460 | -2.84396 | 38297 ft | 438 kts | 334° |
| 2026-04-26 10:11 | 54.85651 | -2.89614 | 38291 ft | 429 kts | 313° |
| 2026-04-26 10:12 | 54.87575 | -2.93447 | 38290 ft | 426 kts | 301° |
| 2026-04-26 10:12 | 54.88978 | -2.98032 | 38294 ft | 422 kts | 288° |
| 2026-04-26 10:12 | 54.90594 | -3.07777 | 38056 ft | 419 kts | 284° |
| 2026-04-26 10:13 | 54.91377 | -3.12596 | 37536 ft | 418 kts | 284° |
| 2026-04-26 10:13 | 54.92169 | -3.17452 | 36894 ft | 419 kts | 284° |
| 2026-04-26 10:13 | 54.92963 | -3.22348 | 36044 ft | 423 kts | 284° |
| 2026-04-26 10:13 | 54.93749 | -3.27222 | 35109 ft | 428 kts | 283° |
| 2026-04-26 10:14 | 54.94566 | -3.32312 | 34220 ft | 431 kts | 283° |
| 2026-04-26 10:14 | 54.95370 | -3.37337 | 33277 ft | 432 kts | 283° |
| 2026-04-26 10:14 | 54.96153 | -3.42253 | 32332 ft | 433 kts | 283° |
| 2026-04-26 10:14 | 54.96979 | -3.47452 | 31342 ft | 435 kts | 283° |
| 2026-04-26 10:15 | 54.97783 | -3.52529 | 30374 ft | 436 kts | 283° |
| 2026-04-26 10:15 | 54.98591 | -3.57654 | 29258 ft | 439 kts | 283° |
| 2026-04-26 10:15 | 54.99395 | -3.62762 | 28388 ft | 436 kts | 283° |
| 2026-04-26 10:15 | 55.00191 | -3.67832 | 27591 ft | 432 kts | 283° |
| 2026-04-26 10:16 | 55.00979 | -3.72873 | 26801 ft | 429 kts | 283° |
| 2026-04-26 10:16 | 55.01758 | -3.77866 | 26034 ft | 426 kts | 283° |
| 2026-04-26 10:16 | 55.02529 | -3.82833 | 25301 ft | 423 kts | 283° |
| 2026-04-26 10:16 | 55.03294 | -3.87770 | 24577 ft | 421 kts | 283° |
| 2026-04-26 10:17 | 55.04044 | -3.92625 | 23876 ft | 419 kts | 283° |
| 2026-04-26 10:17 | 55.04795 | -3.97504 | 23118 ft | 415 kts | 283° |
| 2026-04-26 10:17 | 55.05538 | -4.02337 | 22422 ft | 410 kts | 283° |
| 2026-04-26 10:17 | 55.06271 | -4.07126 | 21710 ft | 406 kts | 283° |
| 2026-04-26 10:18 | 55.06995 | -4.11868 | 21008 ft | 403 kts | 283° |
| 2026-04-26 10:18 | 55.07712 | -4.16579 | 20337 ft | 399 kts | 283° |
| 2026-04-26 10:18 | 55.08419 | -4.21237 | 19671 ft | 395 kts | 283° |
| 2026-04-26 10:18 | 55.09103 | -4.25760 | 19047 ft | 392 kts | 283° |
| 2026-04-26 10:19 | 55.09794 | -4.30343 | 18367 ft | 389 kts | 283° |
| 2026-04-26 10:19 | 55.10476 | -4.34887 | 17654 ft | 386 kts | 283° |
| 2026-04-26 10:19 | 55.11155 | -4.39413 | 16966 ft | 382 kts | 283° |
| 2026-04-26 10:19 | 55.11823 | -4.43884 | 16289 ft | 379 kts | 283° |
| 2026-04-26 10:20 | 55.12483 | -4.48305 | 15611 ft | 376 kts | 283° |
| 2026-04-26 10:20 | 55.13132 | -4.52667 | 14974 ft | 373 kts | 283° |
| 2026-04-26 10:20 | 55.13779 | -4.57029 | 14338 ft | 370 kts | 283° |
| 2026-04-26 10:20 | 55.14759 | -4.61179 | 13674 ft | 371 kts | 300° |
| 2026-04-26 10:21 | 55.16446 | -4.64550 | 13135 ft | 369 kts | 319° |
| 2026-04-26 10:21 | 55.18669 | -4.66805 | 12408 ft | 372 kts | 338° |
| 2026-04-26 10:21 | 55.21215 | -4.67615 | 11881 ft | 371 kts | 359° |
| 2026-04-26 10:21 | 55.23698 | -4.66805 | 11703 ft | 358 kts | 21° |
| 2026-04-26 10:22 | 55.25805 | -4.64588 | 11275 ft | 353 kts | 42° |
| 2026-04-26 10:22 | 55.27292 | -4.61226 | 10741 ft | 349 kts | 65° |
| 2026-04-26 10:22 | 55.27916 | -4.57203 | 10477 ft | 336 kts | 89° |
| 2026-04-26 10:22 | 55.27825 | -4.53218 | 10341 ft | 320 kts | 96° |
| 2026-04-26 10:23 | 55.27781 | -4.49387 | 10214 ft | 309 kts | 89° |
| 2026-04-26 10:23 | 55.28026 | -4.45675 | 9924 ft | 304 kts | 81° |
| 2026-04-26 10:23 | 55.28521 | -4.42147 | 9671 ft | 297 kts | 75° |
| 2026-04-26 10:23 | 55.29154 | -4.38711 | 9606 ft | 299 kts | 72° |
| 2026-04-26 10:24 | 55.29853 | -4.35258 | 9545 ft | 299 kts | 71° |
| 2026-04-26 10:24 | 55.30564 | -4.31843 | 9478 ft | 297 kts | 71° |
| 2026-04-26 10:24 | 55.31274 | -4.28433 | 9413 ft | 298 kts | 71° |
| 2026-04-26 10:24 | 55.31979 | -4.25024 | 9356 ft | 298 kts | 71° |
| 2026-04-26 10:25 | 55.32682 | -4.21599 | 9294 ft | 296 kts | 71° |
| 2026-04-26 10:25 | 55.33377 | -4.18200 | 9227 ft | 296 kts | 71° |
| 2026-04-26 10:25 | 55.34071 | -4.14787 | 9164 ft | 296 kts | 71° |
| 2026-04-26 10:25 | 55.34761 | -4.11388 | 9103 ft | 295 kts | 71° |
| 2026-04-26 10:26 | 55.35451 | -4.07984 | 9038 ft | 295 kts | 71° |
| 2026-04-26 10:26 | 55.36137 | -4.04589 | 8975 ft | 295 kts | 71° |
| 2026-04-26 10:26 | 55.36820 | -4.01226 | 8921 ft | 294 kts | 71° |
| 2026-04-26 10:26 | 55.37505 | -3.97833 | 8864 ft | 295 kts | 71° |
| 2026-04-26 10:27 | 55.38188 | -3.94436 | 8806 ft | 294 kts | 71° |
| 2026-04-26 10:27 | 55.38866 | -3.91047 | 8740 ft | 293 kts | 71° |
| 2026-04-26 10:27 | 55.39545 | -3.87659 | 8678 ft | 293 kts | 71° |
| 2026-04-26 10:27 | 55.40223 | -3.84282 | 8615 ft | 293 kts | 71° |
| 2026-04-26 10:28 | 55.40902 | -3.80888 | 8557 ft | 293 kts | 71° |
| 2026-04-26 10:28 | 55.41577 | -3.77511 | 8498 ft | 292 kts | 71° |
| 2026-04-26 10:28 | 55.42247 | -3.74151 | 8442 ft | 292 kts | 71° |
| 2026-04-26 10:28 | 55.42921 | -3.70769 | 8375 ft | 292 kts | 71° |
| 2026-04-26 10:29 | 55.43590 | -3.67405 | 8313 ft | 291 kts | 71° |
| 2026-04-26 10:29 | 55.44260 | -3.64032 | 8260 ft | 291 kts | 71° |
| 2026-04-26 10:29 | 55.44926 | -3.60672 | 8194 ft | 290 kts | 71° |
| 2026-04-26 10:29 | 55.45589 | -3.57314 | 8142 ft | 290 kts | 71° |
| 2026-04-26 10:30 | 55.46248 | -3.53959 | 8084 ft | 290 kts | 71° |
| 2026-04-26 10:30 | 55.46907 | -3.50607 | 8039 ft | 289 kts | 71° |
| 2026-04-26 10:30 | 55.47567 | -3.47242 | 7930 ft | 290 kts | 71° |
| 2026-04-26 10:30 | 55.48217 | -3.43937 | 7831 ft | 288 kts | 71° |
| 2026-04-26 10:31 | 55.48873 | -3.40599 | 7766 ft | 279 kts | 71° |
| 2026-04-26 10:31 | 55.49508 | -3.37428 | 7667 ft | 269 kts | 66° |
| 2026-04-26 10:31 | 55.50568 | -3.34852 | 7564 ft | 255 kts | 37° |
| 2026-04-26 10:31 | 55.52075 | -3.33377 | 7452 ft | 245 kts | 23° |
| 2026-04-26 10:32 | 55.53611 | -3.32103 | 7293 ft | 241 kts | 24° |
| 2026-04-26 10:32 | 55.55099 | -3.30843 | 7196 ft | 236 kts | 24° |
| 2026-04-26 10:32 | 55.56600 | -3.29556 | 7110 ft | 240 kts | 24° |
| 2026-04-26 10:32 | 55.58070 | -3.28285 | 7007 ft | 237 kts | 24° |
| 2026-04-26 10:33 | 55.59569 | -3.26987 | 6922 ft | 238 kts | 24° |
| 2026-04-26 10:33 | 55.61038 | -3.25721 | 6827 ft | 238 kts | 24° |
| 2026-04-26 10:33 | 55.62518 | -3.24433 | 6722 ft | 236 kts | 24° |
| 2026-04-26 10:33 | 55.64013 | -3.23133 | 6616 ft | 236 kts | 24° |
| 2026-04-26 10:34 | 55.65468 | -3.21872 | 6522 ft | 234 kts | 24° |
| 2026-04-26 10:34 | 55.66935 | -3.20599 | 6438 ft | 236 kts | 24° |
| 2026-04-26 10:34 | 55.68409 | -3.19319 | 6348 ft | 235 kts | 24° |
| 2026-04-26 10:34 | 55.69876 | -3.18045 | 6266 ft | 235 kts | 24° |
| 2026-04-26 10:35 | 55.71345 | -3.16776 | 6120 ft | 234 kts | 24° |
| 2026-04-26 10:35 | 55.72808 | -3.15515 | 6001 ft | 233 kts | 24° |
| 2026-04-26 10:35 | 55.73774 | -3.14682 | 5920 ft | 233 kts | 24° |
| 2026-04-26 10:35 | 55.75079 | -3.13558 | 5819 ft | 233 kts | 24° |
| 2026-04-26 10:36 | 55.76541 | -3.12298 | 5700 ft | 232 kts | 24° |
| 2026-04-26 10:36 | 55.77995 | -3.11042 | 5567 ft | 232 kts | 24° |
| 2026-04-26 10:36 | 55.79441 | -3.09796 | 5461 ft | 231 kts | 24° |
| 2026-04-26 10:36 | 55.80887 | -3.08543 | 5353 ft | 231 kts | 24° |
| 2026-04-26 10:37 | 55.82326 | -3.07292 | 5224 ft | 230 kts | 24° |
| 2026-04-26 10:37 | 55.83764 | -3.06045 | 5109 ft | 230 kts | 24° |
| 2026-04-26 10:37 | 55.85162 | -3.04673 | 4997 ft | 230 kts | 30° |
| 2026-04-26 10:37 | 55.86559 | -3.03372 | 4877 ft | 228 kts | 21° |
| 2026-04-26 10:38 | 55.88055 | -3.02348 | 4762 ft | 228 kts | 16° |
| 2026-04-26 10:38 | 55.89552 | -3.01558 | 4651 ft | 226 kts | 12° |
| 2026-04-26 10:38 | 55.91087 | -3.00950 | 4525 ft | 226 kts | 8° |
| 2026-04-26 10:38 | 55.92633 | -3.00533 | 4416 ft | 224 kts | 4° |
| 2026-04-26 10:39 | 55.94173 | -3.00315 | 4316 ft | 223 kts | 0° |
| 2026-04-26 10:39 | 55.95750 | -3.00290 | 4168 ft | 225 kts | 356° |
| 2026-04-26 10:39 | 55.97298 | -3.00464 | 3967 ft | 221 kts | 352° |
| 2026-04-26 10:39 | 55.98830 | -3.00839 | 3792 ft | 221 kts | 347° |
| 2026-04-26 10:40 | 56.00324 | -3.01410 | 3619 ft | 221 kts | 343° |
| 2026-04-26 10:40 | 56.01783 | -3.02239 | 3391 ft | 218 kts | 328° |
| 2026-04-26 10:40 | 56.02749 | -3.04192 | 3309 ft | 216 kts | 292° |
| 2026-04-26 10:40 | 56.03237 | -3.06709 | 3290 ft | 210 kts | 284° |
| 2026-04-26 10:41 | 56.03609 | -3.09224 | 3289 ft | 209 kts | 283° |
| 2026-04-26 10:41 | 56.03898 | -3.11769 | 3286 ft | 209 kts | 268° |
| 2026-04-26 10:41 | 56.03490 | -3.14214 | 3294 ft | 208 kts | 235° |
| 2026-04-26 10:41 | 56.02589 | -3.16226 | 3298 ft | 207 kts | 229° |
| 2026-04-26 10:42 | 56.01684 | -3.18148 | 3320 ft | 197 kts | 231° |
| 2026-04-26 10:42 | 56.00908 | -3.19964 | 3219 ft | 173 kts | 234° |
| 2026-04-26 10:42 | 56.00231 | -3.21720 | 2752 ft | 172 kts | 237° |
| 2026-04-26 10:42 | 55.99634 | -3.23546 | 2345 ft | 168 kts | 239° |
| 2026-04-26 10:43 | 55.99077 | -3.25310 | 2006 ft | 156 kts | 239° |
| 2026-04-26 10:43 | 55.98573 | -3.26956 | 1694 ft | 147 kts | 237° |
| 2026-04-26 10:43 | 55.98037 | -3.28435 | 1379 ft | 141 kts | 231° |
| 2026-04-26 10:43 | 55.97489 | -3.29919 | 1040 ft | 141 kts | 239° |
| 2026-04-26 10:44 | 55.96980 | -3.31395 | 769 ft | 137 kts | 237° |
| 2026-04-26 10:44 | 55.96505 | -3.32821 | 579 ft | 130 kts | 239° |
| 2026-04-26 10:44 | 55.96037 | -3.34184 | 396 ft | 130 kts | 239° |
| 2026-04-26 10:44 | 55.95576 | -3.35551 | 222 ft | 128 kts | 238° |
| 2026-04-26 10:45 | 55.95131 | -3.36872 | 134 ft | 119 kts | 239° |
| 2026-04-26 10:45 | 55.94774 | -3.37938 | 115 ft | 68 kts | 237° |
| 2026-04-26 10:45 | 55.94662 | -3.37994 | 115 ft | 0 kts | 236° |
| 2026-04-26 10:45 | 55.94613 | -3.37978 | 115 ft | 0 kts | 146° |
| 2026-04-26 10:46 | 55.94610 | -3.37974 | 112 ft | 4 kts | 146° |
| 2026-04-26 10:46 | 55.94585 | -3.37919 | 116 ft | 6 kts | 80° |
| 2026-04-26 10:47 | 55.94611 | -3.37831 | 114 ft | 10 kts | 58° |
| 2026-04-26 10:47 | 55.94655 | -3.37705 | 114 ft | 14 kts | 58° |
| 2026-04-26 10:47 | 55.94711 | -3.37542 | 114 ft | 17 kts | 58° |
| 2026-04-26 10:47 | 55.94776 | -3.37342 | 113 ft | 20 kts | 60° |
| 2026-04-26 10:48 | 55.94849 | -3.37111 | 115 ft | 23 kts | 60° |
| 2026-04-26 10:48 | 55.94896 | -3.36971 | 114 ft | 0 kts | 57° |
| 2026-04-26 10:50 | 55.94906 | -3.36942 | 113 ft | 8 kts | 57° |
| 2026-04-26 10:50 | 55.94932 | -3.36870 | 114 ft | 12 kts | 57° |
| 2026-04-26 10:50 | 55.95003 | -3.36663 | 114 ft | 17 kts | 59° |
| 2026-04-26 10:50 | 55.95070 | -3.36466 | 114 ft | 20 kts | 58° |
| 2026-04-26 10:51 | 55.95143 | -3.36241 | 116 ft | 20 kts | 74° |
| 2026-04-26 10:51 | 55.95111 | -3.36075 | 115 ft | 11 kts | 107° |
| 2026-04-26 10:51 | 55.95098 | -3.36011 | 113 ft | 0 kts | 113° |
| 2026-04-26 10:52 | 55.95097 | -3.36008 | 116 ft | 0 kts | 112° |
| 2026-04-26 10:53 | 55.95086 | -3.35964 | 115 ft | 11 kts | 115° |
| 2026-04-26 10:53 | 55.95030 | -3.35833 | 113 ft | 12 kts | 169° |
| 2026-04-26 10:54 | 55.94956 | -3.35908 | 114 ft | 5 kts | 237° |
| 2026-04-26 10:54 | 55.94946 | -3.35952 | 114 ft | 2 kts | 255° |
| 2026-04-26 10:54 | 55.94940 | -3.35982 | 115 ft | 0 kts | 251° |